sensor_id;sensor_type;location;lat;lon;timestamp;P1;durP1;ratioP1;P2;durP2;ratioP2
64868;SDS011;51349;52.424;10.840;2023-06-10T00:03:20;7.68;;;3.97;;
64868;SDS011;51349;52.424;10.840;2023-06-10T00:08:23;6.50;;;3.92;;
64868;SDS011;51349;52.424;10.840;2023-06-10T00:13:24;4.38;;;3.97;;
64868;SDS011;51349;52.424;10.840;2023-06-10T00:18:25;5.50;;;3.67;;
64868;SDS011;51349;52.424;10.840;2023-06-10T00:23:27;5.55;;;4.20;;
64868;SDS011;51349;52.424;10.840;2023-06-10T00:28:29;7.10;;;3.97;;
64868;SDS011;51349;52.424;10.840;2023-06-10T00:33:29;4.47;;;3.50;;
64868;SDS011;51349;52.424;10.840;2023-06-10T00:38:31;4.15;;;3.83;;
64868;SDS011;51349;52.424;10.840;2023-06-10T00:43:32;4.57;;;4.18;;
64868;SDS011;51349;52.424;10.840;2023-06-10T00:48:32;6.47;;;4.10;;
64868;SDS011;51349;52.424;10.840;2023-06-10T00:53:33;7.25;;;3.83;;
64868;SDS011;51349;52.424;10.840;2023-06-10T00:58:35;9.32;;;4.20;;
64868;SDS011;51349;52.424;10.840;2023-06-10T01:03:37;5.78;;;3.88;;
64868;SDS011;51349;52.424;10.840;2023-06-10T01:08:45;4.32;;;3.92;;
64868;SDS011;51349;52.424;10.840;2023-06-10T01:14:00;5.32;;;4.07;;
64868;SDS011;51349;52.424;10.840;2023-06-10T01:19:03;6.00;;;4.30;;
64868;SDS011;51349;52.424;10.840;2023-06-10T01:24:04;6.88;;;4.47;;
64868;SDS011;51349;52.424;10.840;2023-06-10T01:29:11;4.85;;;4.35;;
64868;SDS011;51349;52.424;10.840;2023-06-10T01:34:18;7.20;;;4.18;;
64868;SDS011;51349;52.424;10.840;2023-06-10T01:39:20;5.05;;;4.43;;
64868;SDS011;51349;52.424;10.840;2023-06-10T01:44:23;4.80;;;4.10;;
64868;SDS011;51349;52.424;10.840;2023-06-10T01:49:24;6.72;;;4.20;;
64868;SDS011;51349;52.424;10.840;2023-06-10T01:54:26;5.00;;;4.25;;
64868;SDS011;51349;52.424;10.840;2023-06-10T01:59:27;6.32;;;4.40;;
64868;SDS011;51349;52.424;10.840;2023-06-10T02:04:27;4.60;;;4.20;;
64868;SDS011;51349;52.424;10.840;2023-06-10T02:09:28;7.18;;;4.63;;
64868;SDS011;51349;52.424;10.840;2023-06-10T02:14:29;5.97;;;4.38;;
64868;SDS011;51349;52.424;10.840;2023-06-10T02:19:29;6.40;;;4.88;;
64868;SDS011;51349;52.424;10.840;2023-06-10T02:24:30;4.90;;;4.50;;
64868;SDS011;51349;52.424;10.840;2023-06-10T02:29:31;7.40;;;4.70;;
64868;SDS011;51349;52.424;10.840;2023-06-10T02:34:33;4.93;;;4.32;;
64868;SDS011;51349;52.424;10.840;2023-06-10T02:39:34;5.60;;;4.57;;
64868;SDS011;51349;52.424;10.840;2023-06-10T02:44:35;6.53;;;4.93;;
64868;SDS011;51349;52.424;10.840;2023-06-10T02:49:36;5.25;;;4.40;;
64868;SDS011;51349;52.424;10.840;2023-06-10T02:54:37;5.88;;;4.90;;
64868;SDS011;51349;52.424;10.840;2023-06-10T02:59:38;6.57;;;6.00;;
64868;SDS011;51349;52.424;10.840;2023-06-10T03:04:38;8.13;;;4.93;;
64868;SDS011;51349;52.424;10.840;2023-06-10T03:09:39;8.10;;;4.78;;
64868;SDS011;51349;52.424;10.840;2023-06-10T03:14:40;6.45;;;5.15;;
64868;SDS011;51349;52.424;10.840;2023-06-10T03:19:41;6.75;;;5.13;;
64868;SDS011;51349;52.424;10.840;2023-06-10T03:24:42;6.22;;;4.75;;
64868;SDS011;51349;52.424;10.840;2023-06-10T03:29:43;5.60;;;5.00;;
64868;SDS011;51349;52.424;10.840;2023-06-10T03:34:44;6.15;;;5.47;;
64868;SDS011;51349;52.424;10.840;2023-06-10T03:39:45;8.05;;;5.35;;
64868;SDS011;51349;52.424;10.840;2023-06-10T03:44:45;7.45;;;5.07;;
64868;SDS011;51349;52.424;10.840;2023-06-10T03:49:46;6.50;;;4.93;;
64868;SDS011;51349;52.424;10.840;2023-06-10T03:54:47;5.43;;;4.93;;
64868;SDS011;51349;52.424;10.840;2023-06-10T03:59:47;4.93;;;4.45;;
64868;SDS011;51349;52.424;10.840;2023-06-10T04:04:48;8.02;;;5.28;;
64868;SDS011;51349;52.424;10.840;2023-06-10T04:09:49;5.72;;;5.15;;
64868;SDS011;51349;52.424;10.840;2023-06-10T04:14:50;6.93;;;4.75;;
64868;SDS011;51349;52.424;10.840;2023-06-10T04:19:52;7.57;;;5.05;;
64868;SDS011;51349;52.424;10.840;2023-06-10T04:24:54;5.28;;;4.80;;
64868;SDS011;51349;52.424;10.840;2023-06-10T04:29:55;6.82;;;4.45;;
64868;SDS011;51349;52.424;10.840;2023-06-10T04:34:56;7.07;;;5.35;;
64868;SDS011;51349;52.424;10.840;2023-06-10T04:39:56;5.18;;;4.60;;
64868;SDS011;51349;52.424;10.840;2023-06-10T04:44:57;6.97;;;4.80;;
64868;SDS011;51349;52.424;10.840;2023-06-10T04:49:58;7.20;;;3.92;;
64868;SDS011;51349;52.424;10.840;2023-06-10T04:54:59;5.43;;;4.07;;
64868;SDS011;51349;52.424;10.840;2023-06-10T05:00:00;5.95;;;4.68;;
64868;SDS011;51349;52.424;10.840;2023-06-10T05:05:01;6.68;;;4.40;;
64868;SDS011;51349;52.424;10.840;2023-06-10T05:10:02;5.25;;;4.00;;
64868;SDS011;51349;52.424;10.840;2023-06-10T05:15:03;6.05;;;4.15;;
64868;SDS011;51349;52.424;10.840;2023-06-10T05:20:04;6.95;;;4.80;;
64868;SDS011;51349;52.424;10.840;2023-06-10T05:25:05;5.75;;;3.78;;
64868;SDS011;51349;52.424;10.840;2023-06-10T05:30:07;4.88;;;4.32;;
64868;SDS011;51349;52.424;10.840;2023-06-10T05:35:08;5.50;;;4.32;;
64868;SDS011;51349;52.424;10.840;2023-06-10T05:40:09;4.82;;;3.83;;
64868;SDS011;51349;52.424;10.840;2023-06-10T05:45:10;6.18;;;4.03;;
64868;SDS011;51349;52.424;10.840;2023-06-10T05:50:11;6.75;;;4.03;;
64868;SDS011;51349;52.424;10.840;2023-06-10T05:55:11;5.38;;;4.30;;
64868;SDS011;51349;52.424;10.840;2023-06-10T06:00:12;7.88;;;4.47;;
64868;SDS011;51349;52.424;10.840;2023-06-10T06:05:13;6.68;;;3.97;;
64868;SDS011;51349;52.424;10.840;2023-06-10T06:10:14;8.20;;;4.80;;
64868;SDS011;51349;52.424;10.840;2023-06-10T06:15:16;7.47;;;4.53;;
64868;SDS011;51349;52.424;10.840;2023-06-10T06:20:18;6.63;;;4.30;;
64868;SDS011;51349;52.424;10.840;2023-06-10T06:25:21;5.45;;;3.88;;
64868;SDS011;51349;52.424;10.840;2023-06-10T06:30:23;6.68;;;4.30;;
64868;SDS011;51349;52.424;10.840;2023-06-10T06:35:23;8.57;;;4.40;;
64868;SDS011;51349;52.424;10.840;2023-06-10T06:40:24;4.40;;;4.00;;
64868;SDS011;51349;52.424;10.840;2023-06-10T06:45:25;4.70;;;4.10;;
64868;SDS011;51349;52.424;10.840;2023-06-10T06:50:27;6.30;;;4.20;;
64868;SDS011;51349;52.424;10.840;2023-06-10T06:55:28;7.03;;;4.30;;
64868;SDS011;51349;52.424;10.840;2023-06-10T07:00:29;5.47;;;4.35;;
64868;SDS011;51349;52.424;10.840;2023-06-10T07:05:30;4.57;;;3.88;;
64868;SDS011;51349;52.424;10.840;2023-06-10T07:10:31;5.47;;;4.60;;
64868;SDS011;51349;52.424;10.840;2023-06-10T07:15:31;5.40;;;4.75;;
64868;SDS011;51349;52.424;10.840;2023-06-10T07:20:33;9.30;;;5.30;;
64868;SDS011;51349;52.424;10.840;2023-06-10T07:25:33;5.45;;;4.50;;
64868;SDS011;51349;52.424;10.840;2023-06-10T07:30:34;7.57;;;5.47;;
64868;SDS011;51349;52.424;10.840;2023-06-10T07:35:35;6.95;;;4.80;;
64868;SDS011;51349;52.424;10.840;2023-06-10T07:40:35;6.75;;;4.88;;
64868;SDS011;51349;52.424;10.840;2023-06-10T07:45:36;6.07;;;4.53;;
64868;SDS011;51349;52.424;10.840;2023-06-10T07:50:37;5.20;;;4.70;;
64868;SDS011;51349;52.424;10.840;2023-06-10T07:55:37;5.90;;;4.63;;
64868;SDS011;51349;52.424;10.840;2023-06-10T08:00:38;6.95;;;4.50;;
64868;SDS011;51349;52.424;10.840;2023-06-10T08:05:39;5.53;;;4.57;;
64868;SDS011;51349;52.424;10.840;2023-06-10T08:10:40;5.55;;;4.53;;
64868;SDS011;51349;52.424;10.840;2023-06-10T08:15:41;8.05;;;4.53;;
64868;SDS011;51349;52.424;10.840;2023-06-10T08:20:41;7.10;;;4.63;;
64868;SDS011;51349;52.424;10.840;2023-06-10T08:25:42;5.85;;;4.72;;
64868;SDS011;51349;52.424;10.840;2023-06-10T08:30:43;6.50;;;4.95;;
64868;SDS011;51349;52.424;10.840;2023-06-10T08:35:44;5.47;;;4.55;;
64868;SDS011;51349;52.424;10.840;2023-06-10T08:40:44;8.82;;;4.72;;
64868;SDS011;51349;52.424;10.840;2023-06-10T08:45:45;6.30;;;4.63;;
64868;SDS011;51349;52.424;10.840;2023-06-10T08:50:49;7.07;;;4.82;;
64868;SDS011;51349;52.424;10.840;2023-06-10T08:55:51;5.35;;;4.68;;
64868;SDS011;51349;52.424;10.840;2023-06-10T09:00:52;7.88;;;5.20;;
64868;SDS011;51349;52.424;10.840;2023-06-10T09:05:54;6.55;;;4.72;;
64868;SDS011;51349;52.424;10.840;2023-06-10T09:10:57;7.15;;;4.72;;
64868;SDS011;51349;52.424;10.840;2023-06-10T09:15:58;5.93;;;5.22;;
64868;SDS011;51349;52.424;10.840;2023-06-10T09:21:01;6.50;;;5.20;;
64868;SDS011;51349;52.424;10.840;2023-06-10T09:26:01;5.95;;;4.82;;
64868;SDS011;51349;52.424;10.840;2023-06-10T09:31:04;6.43;;;5.30;;
64868;SDS011;51349;52.424;10.840;2023-06-10T09:36:07;6.00;;;5.50;;
64868;SDS011;51349;52.424;10.840;2023-06-10T09:41:07;6.50;;;5.00;;
64868;SDS011;51349;52.424;10.840;2023-06-10T09:46:30;5.43;;;4.93;;
64868;SDS011;51349;52.424;10.840;2023-06-10T09:51:32;6.35;;;5.32;;
64868;SDS011;51349;52.424;10.840;2023-06-10T09:56:36;5.38;;;4.88;;
64868;SDS011;51349;52.424;10.840;2023-06-10T10:01:37;5.63;;;4.93;;
64868;SDS011;51349;52.424;10.840;2023-06-10T10:06:38;7.75;;;5.82;;
64868;SDS011;51349;52.424;10.840;2023-06-10T10:11:40;6.18;;;5.07;;
64868;SDS011;51349;52.424;10.840;2023-06-10T10:16:42;5.82;;;5.32;;
64868;SDS011;51349;52.424;10.840;2023-06-10T10:21:48;6.32;;;5.72;;
64868;SDS011;51349;52.424;10.840;2023-06-10T10:26:53;9.23;;;5.50;;
64868;SDS011;51349;52.424;10.840;2023-06-10T10:31:56;6.32;;;5.80;;
64868;SDS011;51349;52.424;10.840;2023-06-10T10:37:00;6.88;;;5.45;;
64868;SDS011;51349;52.424;10.840;2023-06-10T10:42:01;6.43;;;6.03;;
64868;SDS011;51349;52.424;10.840;2023-06-10T10:47:04;6.28;;;5.78;;
64868;SDS011;51349;52.424;10.840;2023-06-10T10:52:11;7.60;;;6.13;;
64868;SDS011;51349;52.424;10.840;2023-06-10T10:57:13;6.90;;;6.18;;
64868;SDS011;51349;52.424;10.840;2023-06-10T11:07:40;6.85;;;6.03;;
64868;SDS011;51349;52.424;10.840;2023-06-10T11:12:51;7.05;;;6.45;;
64868;SDS011;51349;52.424;10.840;2023-06-10T11:28:28;7.55;;;6.95;;
64868;SDS011;51349;52.424;10.840;2023-06-10T11:33:29;7.57;;;6.25;;
64868;SDS011;51349;52.424;10.840;2023-06-10T11:38:30;8.50;;;7.60;;
64868;SDS011;51349;52.424;10.840;2023-06-10T11:43:31;7.53;;;6.93;;
64868;SDS011;51349;52.424;10.840;2023-06-10T11:48:31;7.72;;;7.13;;
64868;SDS011;51349;52.424;10.840;2023-06-10T11:53:34;7.93;;;7.18;;
64868;SDS011;51349;52.424;10.840;2023-06-10T11:58:35;7.38;;;6.68;;
64868;SDS011;51349;52.424;10.840;2023-06-10T12:03:36;8.65;;;7.65;;
64868;SDS011;51349;52.424;10.840;2023-06-10T12:08:41;8.25;;;7.47;;
64868;SDS011;51349;52.424;10.840;2023-06-10T12:13:46;8.70;;;7.25;;
64868;SDS011;51349;52.424;10.840;2023-06-10T12:18:51;10.77;;;7.80;;
64868;SDS011;51349;52.424;10.840;2023-06-10T12:24:06;8.00;;;7.28;;
64868;SDS011;51349;52.424;10.840;2023-06-10T12:34:19;8.25;;;7.57;;
64868;SDS011;51349;52.424;10.840;2023-06-10T12:39:19;8.80;;;7.85;;
64868;SDS011;51349;52.424;10.840;2023-06-10T12:44:33;8.05;;;7.32;;
64868;SDS011;51349;52.424;10.840;2023-06-10T12:49:34;8.32;;;7.15;;
64868;SDS011;51349;52.424;10.840;2023-06-10T12:54:35;7.88;;;7.18;;
64868;SDS011;51349;52.424;10.840;2023-06-10T12:59:36;7.63;;;7.13;;
64868;SDS011;51349;52.424;10.840;2023-06-10T13:04:37;8.18;;;7.47;;
64868;SDS011;51349;52.424;10.840;2023-06-10T13:09:38;8.40;;;7.57;;
64868;SDS011;51349;52.424;10.840;2023-06-10T13:14:39;7.50;;;6.90;;
64868;SDS011;51349;52.424;10.840;2023-06-10T13:19:40;8.32;;;7.68;;
64868;SDS011;51349;52.424;10.840;2023-06-10T13:24:40;8.10;;;7.43;;
64868;SDS011;51349;52.424;10.840;2023-06-10T13:29:43;8.50;;;7.75;;
64868;SDS011;51349;52.424;10.840;2023-06-10T13:34:44;8.07;;;7.47;;
64868;SDS011;51349;52.424;10.840;2023-06-10T13:39:49;9.63;;;7.88;;
64868;SDS011;51349;52.424;10.840;2023-06-10T13:44:50;9.10;;;8.30;;
64868;SDS011;51349;52.424;10.840;2023-06-10T13:49:51;7.88;;;7.15;;
64868;SDS011;51349;52.424;10.840;2023-06-10T13:54:52;7.65;;;6.75;;
64868;SDS011;51349;52.424;10.840;2023-06-10T13:59:52;8.02;;;7.43;;
64868;SDS011;51349;52.424;10.840;2023-06-10T14:04:53;7.97;;;7.40;;
64868;SDS011;51349;52.424;10.840;2023-06-10T14:09:54;7.35;;;6.75;;
64868;SDS011;51349;52.424;10.840;2023-06-10T14:14:56;8.30;;;7.63;;
64868;SDS011;51349;52.424;10.840;2023-06-10T14:19:56;8.40;;;7.78;;
64868;SDS011;51349;52.424;10.840;2023-06-10T14:25:00;7.93;;;7.32;;
64868;SDS011;51349;52.424;10.840;2023-06-10T14:30:01;7.90;;;7.30;;
64868;SDS011;51349;52.424;10.840;2023-06-10T14:35:04;7.97;;;7.28;;
64868;SDS011;51349;52.424;10.840;2023-06-10T14:40:05;8.00;;;7.30;;
64868;SDS011;51349;52.424;10.840;2023-06-10T14:45:09;7.60;;;6.93;;
64868;SDS011;51349;52.424;10.840;2023-06-10T14:50:10;7.35;;;6.53;;
64868;SDS011;51349;52.424;10.840;2023-06-10T14:55:11;6.80;;;6.30;;
64868;SDS011;51349;52.424;10.840;2023-06-10T15:00:11;7.00;;;6.40;;
64868;SDS011;51349;52.424;10.840;2023-06-10T15:05:15;7.90;;;7.30;;
64868;SDS011;51349;52.424;10.840;2023-06-10T15:10:17;7.53;;;7.03;;
64868;SDS011;51349;52.424;10.840;2023-06-10T15:15:18;7.47;;;6.97;;
64868;SDS011;51349;52.424;10.840;2023-06-10T15:20:18;8.98;;;7.50;;
64868;SDS011;51349;52.424;10.840;2023-06-10T15:25:19;7.38;;;6.88;;
64868;SDS011;51349;52.424;10.840;2023-06-10T15:30:20;7.70;;;7.00;;
64868;SDS011;51349;52.424;10.840;2023-06-10T15:35:21;7.30;;;6.55;;
64868;SDS011;51349;52.424;10.840;2023-06-10T15:40:22;6.93;;;6.28;;
64868;SDS011;51349;52.424;10.840;2023-06-10T15:45:22;10.20;;;9.30;;
64868;SDS011;51349;52.424;10.840;2023-06-10T15:50:23;7.50;;;6.80;;
64868;SDS011;51349;52.424;10.840;2023-06-10T15:55:24;6.53;;;6.13;;
64868;SDS011;51349;52.424;10.840;2023-06-10T16:00:26;8.13;;;7.43;;
64868;SDS011;51349;52.424;10.840;2023-06-10T16:05:27;7.03;;;6.47;;
64868;SDS011;51349;52.424;10.840;2023-06-10T16:10:28;6.97;;;6.38;;
64868;SDS011;51349;52.424;10.840;2023-06-10T16:15:28;10.02;;;6.70;;
64868;SDS011;51349;52.424;10.840;2023-06-10T16:20:29;8.75;;;7.35;;
64868;SDS011;51349;52.424;10.840;2023-06-10T16:25:30;8.13;;;7.13;;
64868;SDS011;51349;52.424;10.840;2023-06-10T16:30:31;8.13;;;7.43;;
64868;SDS011;51349;52.424;10.840;2023-06-10T16:35:35;7.75;;;7.13;;
64868;SDS011;51349;52.424;10.840;2023-06-10T16:40:36;8.50;;;7.75;;
64868;SDS011;51349;52.424;10.840;2023-06-10T16:45:37;7.20;;;6.70;;
64868;SDS011;51349;52.424;10.840;2023-06-10T16:50:38;7.65;;;7.03;;
64868;SDS011;51349;52.424;10.840;2023-06-10T16:55:38;8.43;;;7.70;;
64868;SDS011;51349;52.424;10.840;2023-06-10T17:00:41;8.38;;;7.50;;
64868;SDS011;51349;52.424;10.840;2023-06-10T17:05:45;9.55;;;8.75;;
64868;SDS011;51349;52.424;10.840;2023-06-10T17:10:46;9.10;;;8.30;;
64868;SDS011;51349;52.424;10.840;2023-06-10T17:15:47;9.23;;;8.35;;
64868;SDS011;51349;52.424;10.840;2023-06-10T17:20:47;8.82;;;8.07;;
64868;SDS011;51349;52.424;10.840;2023-06-10T17:25:48;8.00;;;7.40;;
64868;SDS011;51349;52.424;10.840;2023-06-10T17:30:49;8.55;;;7.80;;
64868;SDS011;51349;52.424;10.840;2023-06-10T17:35:50;9.05;;;8.35;;
64868;SDS011;51349;52.424;10.840;2023-06-10T17:40:51;9.10;;;7.90;;
64868;SDS011;51349;52.424;10.840;2023-06-10T17:45:52;8.70;;;8.10;;
64868;SDS011;51349;52.424;10.840;2023-06-10T17:50:52;8.85;;;8.25;;
64868;SDS011;51349;52.424;10.840;2023-06-10T17:55:53;9.55;;;8.60;;
64868;SDS011;51349;52.424;10.840;2023-06-10T18:00:54;8.82;;;8.15;;
64868;SDS011;51349;52.424;10.840;2023-06-10T18:05:54;9.77;;;8.88;;
64868;SDS011;51349;52.424;10.840;2023-06-10T18:10:55;9.80;;;8.88;;
64868;SDS011;51349;52.424;10.840;2023-06-10T18:15:56;10.35;;;8.93;;
64868;SDS011;51349;52.424;10.840;2023-06-10T18:20:59;9.05;;;8.25;;
64868;SDS011;51349;52.424;10.840;2023-06-10T18:26:00;10.73;;;9.85;;
64868;SDS011;51349;52.424;10.840;2023-06-10T18:31:01;11.02;;;9.63;;
64868;SDS011;51349;52.424;10.840;2023-06-10T18:36:01;11.07;;;10.27;;
64868;SDS011;51349;52.424;10.840;2023-06-10T18:41:02;10.48;;;9.45;;
64868;SDS011;51349;52.424;10.840;2023-06-10T18:46:03;12.57;;;11.57;;
64868;SDS011;51349;52.424;10.840;2023-06-10T18:51:04;13.02;;;11.85;;
64868;SDS011;51349;52.424;10.840;2023-06-10T18:56:04;12.27;;;11.30;;
64868;SDS011;51349;52.424;10.840;2023-06-10T19:01:07;11.68;;;10.55;;
64868;SDS011;51349;52.424;10.840;2023-06-10T19:06:08;11.20;;;10.38;;
64868;SDS011;51349;52.424;10.840;2023-06-10T19:11:09;10.98;;;9.98;;
64868;SDS011;51349;52.424;10.840;2023-06-10T19:16:13;10.48;;;9.73;;
64868;SDS011;51349;52.424;10.840;2023-06-10T19:21:13;11.30;;;10.40;;
64868;SDS011;51349;52.424;10.840;2023-06-10T19:26:17;14.07;;;12.93;;
64868;SDS011;51349;52.424;10.840;2023-06-10T19:31:18;14.60;;;13.40;;
64868;SDS011;51349;52.424;10.840;2023-06-10T19:36:19;14.65;;;13.40;;
64868;SDS011;51349;52.424;10.840;2023-06-10T19:41:20;15.10;;;14.00;;
64868;SDS011;51349;52.424;10.840;2023-06-10T19:46:21;14.07;;;12.95;;
64868;SDS011;51349;52.424;10.840;2023-06-10T19:51:22;13.48;;;12.35;;
64868;SDS011;51349;52.424;10.840;2023-06-10T19:56:23;14.05;;;12.88;;
64868;SDS011;51349;52.424;10.840;2023-06-10T20:01:23;12.82;;;11.82;;
64868;SDS011;51349;52.424;10.840;2023-06-10T20:06:24;12.50;;;11.40;;
64868;SDS011;51349;52.424;10.840;2023-06-10T20:11:25;12.23;;;11.10;;
64868;SDS011;51349;52.424;10.840;2023-06-10T20:16:26;12.00;;;10.95;;
64868;SDS011;51349;52.424;10.840;2023-06-10T20:21:26;12.75;;;11.75;;
64868;SDS011;51349;52.424;10.840;2023-06-10T20:26:27;12.75;;;11.55;;
64868;SDS011;51349;52.424;10.840;2023-06-10T20:31:28;12.40;;;11.40;;
64868;SDS011;51349;52.424;10.840;2023-06-10T20:36:29;12.95;;;11.90;;
64868;SDS011;51349;52.424;10.840;2023-06-10T20:41:30;12.73;;;11.73;;
64868;SDS011;51349;52.424;10.840;2023-06-10T20:46:30;12.25;;;11.23;;
64868;SDS011;51349;52.424;10.840;2023-06-10T20:51:31;12.13;;;11.23;;
64868;SDS011;51349;52.424;10.840;2023-06-10T20:56:32;11.43;;;10.57;;
64868;SDS011;51349;52.424;10.840;2023-06-10T21:01:33;12.55;;;11.55;;
64868;SDS011;51349;52.424;10.840;2023-06-10T21:06:34;12.30;;;11.20;;
64868;SDS011;51349;52.424;10.840;2023-06-10T21:11:35;11.10;;;10.20;;
64868;SDS011;51349;52.424;10.840;2023-06-10T21:16:35;12.30;;;11.30;;
64868;SDS011;51349;52.424;10.840;2023-06-10T21:21:37;12.98;;;11.85;;
64868;SDS011;51349;52.424;10.840;2023-06-10T21:26:38;13.43;;;12.43;;
64868;SDS011;51349;52.424;10.840;2023-06-10T21:31:38;14.27;;;12.98;;
64868;SDS011;51349;52.424;10.840;2023-06-10T21:36:39;13.77;;;12.57;;
64868;SDS011;51349;52.424;10.840;2023-06-10T21:41:40;14.10;;;13.10;;
64868;SDS011;51349;52.424;10.840;2023-06-10T21:46:40;15.05;;;13.80;;
64868;SDS011;51349;52.424;10.840;2023-06-10T21:51:41;12.88;;;11.85;;
64868;SDS011;51349;52.424;10.840;2023-06-10T21:56:43;14.57;;;13.25;;
64868;SDS011;51349;52.424;10.840;2023-06-10T22:01:46;13.93;;;12.82;;
64868;SDS011;51349;52.424;10.840;2023-06-10T22:06:47;13.23;;;12.13;;
64868;SDS011;51349;52.424;10.840;2023-06-10T22:11:48;13.50;;;12.23;;
64868;SDS011;51349;52.424;10.840;2023-06-10T22:16:48;13.80;;;12.63;;
64868;SDS011;51349;52.424;10.840;2023-06-10T22:21:50;14.00;;;12.90;;
64868;SDS011;51349;52.424;10.840;2023-06-10T22:26:50;14.05;;;12.88;;
64868;SDS011;51349;52.424;10.840;2023-06-10T22:31:51;13.68;;;12.48;;
64868;SDS011;51349;52.424;10.840;2023-06-10T22:36:52;13.35;;;12.20;;
64868;SDS011;51349;52.424;10.840;2023-06-10T22:41:52;13.05;;;11.95;;
64868;SDS011;51349;52.424;10.840;2023-06-10T22:46:53;12.43;;;11.43;;
64868;SDS011;51349;52.424;10.840;2023-06-10T22:51:54;12.05;;;11.15;;
64868;SDS011;51349;52.424;10.840;2023-06-10T22:56:54;11.80;;;10.65;;
64868;SDS011;51349;52.424;10.840;2023-06-10T23:01:55;11.38;;;10.57;;
64868;SDS011;51349;52.424;10.840;2023-06-10T23:06:56;11.65;;;10.75;;
64868;SDS011;51349;52.424;10.840;2023-06-10T23:11:57;11.52;;;10.52;;
64868;SDS011;51349;52.424;10.840;2023-06-10T23:16:58;10.45;;;9.65;;
64868;SDS011;51349;52.424;10.840;2023-06-10T23:22:01;11.13;;;10.23;;
64868;SDS011;51349;52.424;10.840;2023-06-10T23:27:01;10.15;;;9.30;;
64868;SDS011;51349;52.424;10.840;2023-06-10T23:32:05;11.02;;;9.95;;
64868;SDS011;51349;52.424;10.840;2023-06-10T23:37:09;10.63;;;9.35;;
64868;SDS011;51349;52.424;10.840;2023-06-10T23:42:10;9.82;;;9.13;;
64868;SDS011;51349;52.424;10.840;2023-06-10T23:47:14;9.32;;;8.63;;
64868;SDS011;51349;52.424;10.840;2023-06-10T23:52:16;8.27;;;7.68;;
64868;SDS011;51349;52.424;10.840;2023-06-10T23:57:16;7.75;;;7.05;;
